Time,TemperatureF,DewpointF,PressureIn,WindDirection,WindDirectionDegrees,WindSpeedMPH,WindSpeedGustMPH,Humidity,HourlyPrecipIn,Conditions,Clouds,dailyrainin,SoftwareType,DateUTC
2013-04-02 00:06:00,43.5,43.0,30.03,NNE,22,11.9,-999.0,98,-99.99,,,0.00,Acu-Link.com,2013-04-02 05:06:00,
2013-04-02 00:21:00,43.3,42.5,30.02,NE,45,14.5,-999.0,97,-99.99,,,0.00,Acu-Link.com,2013-04-02 05:21:00,
2013-04-02 00:36:00,43.3,42.5,30.02,East,90,20.1,-999.0,97,-99.99,,,0.00,Acu-Link.com,2013-04-02 05:36:00,
2013-04-02 00:51:00,43.2,42.1,30.02,NE,45,18.6,-999.0,96,-99.99,,,0.00,Acu-Link.com,2013-04-02 05:51:00,
2013-04-02 01:07:00,43.0,41.6,30.02,East,90,18.1,-999.0,95,-99.99,,,0.00,Acu-Link.com,2013-04-02 06:07:00,
2013-04-02 01:22:00,42.8,41.2,30.02,ENE,67,14.5,-999.0,94,-99.99,,,0.00,Acu-Link.com,2013-04-02 06:22:00,
2013-04-02 01:37:00,42.6,41.0,30.03,NNE,22,21.3,-999.0,94,-99.99,,,0.00,Acu-Link.com,2013-04-02 06:37:00,
2013-04-02 01:52:00,42.6,40.5,30.03,NNE,22,22.8,-999.0,92,-99.99,,,0.00,Acu-Link.com,2013-04-02 06:52:00,
2013-04-02 02:07:00,42.6,40.2,30.02,NE,45,18.6,-999.0,91,-99.99,,,0.00,Acu-Link.com,2013-04-02 07:07:00,
2013-04-02 02:23:00,42.6,39.6,30.03,NE,45,11.4,-999.0,89,-99.99,,,0.00,Acu-Link.com,2013-04-02 07:23:00,
2013-04-02 02:38:00,42.3,39.3,30.03,NE,45,12.5,-999.0,89,-99.99,,,0.00,Acu-Link.com,2013-04-02 07:38:00,
2013-04-02 02:53:00,41.7,38.4,30.03,ENE,67,14.1,-999.0,88,-99.99,,,0.00,Acu-Link.com,2013-04-02 07:53:00,
2013-04-02 03:08:00,41.5,38.0,30.04,NE,45,20.1,-999.0,87,-99.99,,,0.00,Acu-Link.com,2013-04-02 08:08:00,
2013-04-02 03:24:00,41.5,37.7,30.04,NE,45,18.6,-999.0,86,-99.99,,,0.00,Acu-Link.com,2013-04-02 08:24:00,
2013-04-02 03:39:00,41.9,37.4,30.03,NE,45,9.8,-999.0,84,-99.99,,,0.00,Acu-Link.com,2013-04-02 08:39:00,
2013-04-02 03:54:00,41.7,37.2,30.03,NNE,22,16.6,-999.0,84,-99.99,,,0.00,Acu-Link.com,2013-04-02 08:54:00,
2013-04-02 04:09:00,41.4,37.5,30.04,NE,45,14.5,-999.0,86,-99.99,,,0.00,Acu-Link.com,2013-04-02 09:09:00,
2013-04-02 04:24:00,40.8,37.3,30.04,NE,45,16.1,-999.0,87,-99.99,,,0.04,Acu-Link.com,2013-04-02 09:24:00,
2013-04-02 04:39:00,40.8,37.8,30.04,NE,45,14.1,-999.0,89,-99.99,,,0.04,Acu-Link.com,2013-04-02 09:39:00,
2013-04-02 04:54:00,40.1,38.0,30.04,NNE,22,12.5,-999.0,92,-99.99,,,0.04,Acu-Link.com,2013-04-02 09:54:00,
2013-04-02 05:09:00,39.9,38.1,30.02,ENE,67,16.1,-999.0,93,-99.99,,,0.04,Acu-Link.com,2013-04-02 10:09:00,
2013-04-02 05:40:00,39.7,37.3,30.02,East,90,15.4,-999.0,91,-99.99,,,0.04,Acu-Link.com,2013-04-02 10:40:00,
2013-04-02 05:55:00,39.9,37.2,30.02,NNE,22,17.0,-999.0,90,-99.99,,,0.04,Acu-Link.com,2013-04-02 10:55:00,
2013-04-02 06:10:00,40.5,37.8,30.04,NE,45,14.5,-999.0,90,-99.99,,,0.04,Acu-Link.com,2013-04-02 11:10:00,
2013-04-02 06:25:00,40.3,38.4,30.04,NE,45,11.9,-999.0,93,-99.99,,,0.04,Acu-Link.com,2013-04-02 11:25:00,
2013-04-02 06:41:00,40.1,38.2,30.05,NNE,22,9.8,-999.0,93,-99.99,,,0.04,Acu-Link.com,2013-04-02 11:41:00,
2013-04-02 06:56:00,39.6,37.7,30.06,NE,45,18.6,-999.0,93,-99.99,,,0.04,Acu-Link.com,2013-04-02 11:56:00,
2013-04-02 07:11:00,39.6,37.2,30.05,ENE,67,12.5,-999.0,91,-99.99,,,0.04,Acu-Link.com,2013-04-02 12:11:00,
2013-04-02 07:26:00,39.4,37.0,30.06,ENE,67,18.1,-999.0,91,-99.99,,,0.04,Acu-Link.com,2013-04-02 12:26:00,
2013-04-02 07:41:00,39.4,37.3,30.07,ENE,67,10.3,-999.0,92,-99.99,,,0.04,Acu-Link.com,2013-04-02 12:41:00,
2013-04-02 07:57:00,39.2,37.1,30.08,NNE,22,13.4,-999.0,92,-99.99,,,0.04,Acu-Link.com,2013-04-02 12:57:00,
2013-04-02 08:12:00,39.2,36.8,30.08,NE,45,13.4,-999.0,91,-99.99,,,0.04,Acu-Link.com,2013-04-02 13:12:00,
2013-04-02 08:27:00,39.2,36.8,30.09,NE,45,13.0,-999.0,91,-99.99,,,0.04,Acu-Link.com,2013-04-02 13:27:00,
2013-04-02 08:42:00,38.7,36.8,30.08,NNE,22,15.4,-999.0,93,-99.99,,,0.04,Acu-Link.com,2013-04-02 13:42:00,
2013-04-02 08:58:00,38.7,37.1,30.09,ENE,67,13.4,-999.0,94,-99.99,,,0.04,Acu-Link.com,2013-04-02 13:58:00,
2013-04-02 09:13:00,38.5,37.4,30.08,NE,45,13.4,-999.0,96,-99.99,,,0.04,Acu-Link.com,2013-04-02 14:13:00,
2013-04-02 09:28:00,38.3,37.8,30.09,NE,45,14.1,-999.0,98,-99.99,,,0.04,Acu-Link.com,2013-04-02 14:28:00,
2013-04-02 09:43:00,38.5,38.0,30.09,NE,45,16.1,-999.0,98,-99.99,,,0.04,Acu-Link.com,2013-04-02 14:43:00,
2013-04-02 09:58:00,37.9,37.4,30.09,NE,45,15.0,-999.0,98,-99.99,,,0.04,Acu-Link.com,2013-04-02 14:58:00,
2013-04-02 10:14:00,37.8,37.2,30.10,NE,45,15.4,-999.0,98,-99.99,,,0.06,Acu-Link.com,2013-04-02 15:14:00,
2013-04-02 10:29:00,37.6,37.1,30.09,ENE,67,11.4,-999.0,98,-99.99,,,0.09,Acu-Link.com,2013-04-02 15:29:00,
2013-04-02 10:44:00,37.8,37.2,30.09,NE,45,11.4,-999.0,98,-99.99,,,0.13,Acu-Link.com,2013-04-02 15:44:00,
2013-04-02 10:59:00,38.7,38.1,30.09,NE,45,16.6,-999.0,98,-99.99,,,0.13,Acu-Link.com,2013-04-02 15:59:00,
2013-04-02 11:14:00,37.9,37.4,30.12,NE,45,7.8,-999.0,98,-99.99,,,0.13,Acu-Link.com,2013-04-02 16:14:00,
2013-04-02 11:30:00,38.3,37.8,30.12,ENE,67,13.4,-999.0,98,-99.99,,,0.13,Acu-Link.com,2013-04-02 16:30:00,
2013-04-02 11:45:00,38.3,37.8,30.11,ENE,67,9.8,-999.0,98,-99.99,,,0.13,Acu-Link.com,2013-04-02 16:45:00,
2013-04-02 12:00:00,38.8,38.3,30.11,NE,45,9.4,-999.0,98,-99.99,,,0.17,Acu-Link.com,2013-04-02 17:00:00,
2013-04-02 12:15:00,39.0,38.5,30.10,NE,45,14.5,-999.0,98,-99.99,,,0.17,Acu-Link.com,2013-04-02 17:15:00,
2013-04-02 12:30:00,39.2,38.7,30.10,NE,45,14.5,-999.0,98,-99.99,,,0.20,Acu-Link.com,2013-04-02 17:30:00,
2013-04-02 13:01:00,37.9,37.4,30.09,NE,45,16.1,-999.0,98,-99.99,,,0.20,Acu-Link.com,2013-04-02 18:01:00,
2013-04-02 13:16:00,39.7,39.2,30.08,North,0,7.4,-999.0,98,-99.99,,,0.22,Acu-Link.com,2013-04-02 18:16:00,
2013-04-02 13:46:00,39.9,39.4,30.09,North,0,8.9,-999.0,98,-99.99,,,0.22,Acu-Link.com,2013-04-02 18:46:00,
2013-04-02 14:02:00,39.6,39.0,30.09,NE,45,11.4,-999.0,98,-99.99,,,0.22,Acu-Link.com,2013-04-02 19:02:00,
2013-04-02 14:17:00,40.1,39.6,30.08,East,90,16.1,-999.0,98,-99.99,,,0.22,Acu-Link.com,2013-04-02 19:17:00,
2013-04-02 14:32:00,39.9,39.4,30.08,NE,45,11.0,-999.0,98,-99.99,,,0.22,Acu-Link.com,2013-04-02 19:32:00,
2013-04-02 14:47:00,40.3,39.8,30.07,ENE,67,13.4,-999.0,98,-99.99,,,0.22,Acu-Link.com,2013-04-02 19:47:00,
2013-04-02 15:03:00,40.3,39.8,30.07,ENE,67,14.1,-999.0,98,-99.99,,,0.22,Acu-Link.com,2013-04-02 20:03:00,
2013-04-02 15:18:00,40.3,39.8,30.07,NNE,22,14.1,-999.0,98,-99.99,,,0.22,Acu-Link.com,2013-04-02 20:18:00,
2013-04-02 15:33:00,40.5,39.9,30.06,ENE,67,13.0,-999.0,98,-99.99,,,0.22,Acu-Link.com,2013-04-02 20:33:00,
2013-04-02 15:48:00,40.6,40.1,30.06,NE,45,15.0,-999.0,98,-99.99,,,0.22,Acu-Link.com,2013-04-02 20:48:00,
2013-04-02 16:03:00,40.5,39.9,30.05,ENE,67,15.0,-999.0,98,-99.99,,,0.22,Acu-Link.com,2013-04-02 21:03:00,
2013-04-02 16:19:00,40.8,40.3,30.04,North,0,11.4,-999.0,98,-99.99,,,0.24,Acu-Link.com,2013-04-02 21:19:00,
2013-04-02 16:34:00,40.5,39.9,30.04,East,90,15.4,-999.0,98,-99.99,,,0.24,Acu-Link.com,2013-04-02 21:34:00,
2013-04-02 16:49:00,41.0,40.5,30.05,NE,45,9.4,-999.0,98,-99.99,,,0.24,Acu-Link.com,2013-04-02 21:49:00,
2013-04-02 17:04:00,40.5,39.9,30.05,NNE,22,17.7,-999.0,98,-99.99,,,0.24,Acu-Link.com,2013-04-02 22:04:00,
2013-04-02 17:19:00,40.3,39.8,30.04,NE,45,17.0,-999.0,98,-99.99,,,0.24,Acu-Link.com,2013-04-02 22:19:00,
2013-04-02 17:35:00,40.5,39.9,30.04,NNE,22,13.0,-999.0,98,-99.99,,,0.24,Acu-Link.com,2013-04-02 22:35:00,
2013-04-02 17:50:00,40.5,39.9,30.05,NNE,22,14.1,-999.0,98,-99.99,,,0.24,Acu-Link.com,2013-04-02 22:50:00,
2013-04-02 18:05:00,40.1,39.6,30.04,NE,45,14.5,-999.0,98,-99.99,,,0.27,Acu-Link.com,2013-04-02 23:05:00,
2013-04-02 18:20:00,39.9,39.4,30.04,NE,45,18.6,-999.0,98,-99.99,,,0.27,Acu-Link.com,2013-04-02 23:20:00,
2013-04-02 18:36:00,40.1,39.6,30.04,NNE,22,8.9,-999.0,98,-99.99,,,0.27,Acu-Link.com,2013-04-02 23:36:00,
2013-04-02 18:51:00,39.7,39.2,30.03,NE,45,16.1,-999.0,98,-99.99,,,0.27,Acu-Link.com,2013-04-02 23:51:00,
2013-04-02 19:21:00,39.6,39.0,30.04,ESE,112,15.4,-999.0,98,-99.99,,,0.27,Acu-Link.com,2013-04-03 00:21:00,
2013-04-02 19:36:00,39.4,38.9,30.04,NE,45,14.1,-999.0,98,-99.99,,,0.27,Acu-Link.com,2013-04-03 00:36:00,
2013-04-02 19:52:00,39.6,39.0,30.05,ESE,112,18.1,-999.0,98,-99.99,,,0.27,Acu-Link.com,2013-04-03 00:52:00,
2013-04-02 20:07:00,39.4,38.9,30.05,NE,45,11.0,-999.0,98,-99.99,,,0.27,Acu-Link.com,2013-04-03 01:07:00,
2013-04-02 20:22:00,39.2,38.7,30.06,NE,45,14.1,-999.0,98,-99.99,,,0.27,Acu-Link.com,2013-04-03 01:22:00,
2013-04-02 20:37:00,39.2,38.7,30.05,NE,45,9.4,-999.0,98,-99.99,,,0.27,Acu-Link.com,2013-04-03 01:37:00,
2013-04-02 20:52:00,39.0,38.5,30.06,ENE,67,8.9,-999.0,98,-99.99,,,0.27,Acu-Link.com,2013-04-03 01:52:00,
2013-04-02 21:08:00,39.0,38.5,30.07,NNE,22,17.7,-999.0,98,-99.99,,,0.27,Acu-Link.com,2013-04-03 02:08:00,
2013-04-02 21:38:00,39.0,38.5,30.08,ENE,67,10.3,-999.0,98,-99.99,,,0.27,Acu-Link.com,2013-04-03 02:38:00,
2013-04-02 21:53:00,39.2,38.7,30.08,NNE,22,8.9,-999.0,98,-99.99,,,0.27,Acu-Link.com,2013-04-03 02:53:00,
2013-04-02 22:08:00,39.2,38.7,30.09,ENE,67,11.9,-999.0,98,-99.99,,,0.27,Acu-Link.com,2013-04-03 03:08:00,
2013-04-02 22:23:00,39.2,38.7,30.09,NNE,22,14.1,-999.0,98,-99.99,,,0.27,Acu-Link.com,2013-04-03 03:23:00,
2013-04-02 22:39:00,39.2,38.7,30.09,ENE,67,12.5,-999.0,98,-99.99,,,0.27,Acu-Link.com,2013-04-03 03:39:00,
2013-04-02 22:54:00,39.2,38.7,30.08,NE,45,11.9,-999.0,98,-99.99,,,0.27,Acu-Link.com,2013-04-03 03:54:00,
2013-04-02 23:09:00,39.0,38.5,30.09,ENE,67,7.8,-999.0,98,-99.99,,,0.29,Acu-Link.com,2013-04-03 04:09:00,
2013-04-02 23:24:00,39.0,38.5,30.09,NNE,22,5.8,-999.0,98,-99.99,,,0.29,Acu-Link.com,2013-04-03 04:24:00,
2013-04-02 23:39:00,39.0,38.5,30.09,NE,45,5.1,-999.0,98,-99.99,,,0.29,Acu-Link.com,2013-04-03 04:39:00,
2013-04-02 23:55:00,39.0,38.5,30.09,NNE,22,8.9,-999.0,98,-99.99,,,0.29,Acu-Link.com,2013-04-03 04:55:00,